Time;durP1;ratioP1;P1;durP2;ratioP2;P2;SDS_P1;SDS_P2;PMS_P1;PMS_P2;Temp;Humidity;BMP_temperature;BMP_pressure;BME280_temperature;BME280_humidity;BME280_pressure;Samples;Min_cycle;Max_cycle;Signal;HPM_P1;HPM_P2
2023/10/29 00:01:43;;;;;;;0.20;0.20;;;15.00;99.90;;;;;;4166395;28;20188;-91
2023/10/29 00:03:44;;;;;;;0.10;0.10;;;15.00;99.90;;;;;;4166877;28;20739;-94
2023/10/29 00:05:45;;;;;;;0.80;0.20;;;15.00;99.90;;;;;;4150910;28;20235;-93
2023/10/29 00:07:46;;;;;;;1.40;0.32;;;15.10;99.90;;;;;;4167050;28;20211;-93
2023/10/29 00:09:47;;;;;;;1.45;0.30;;;15.10;99.90;;;;;;4166839;28;20206;-91
2023/10/29 00:11:48;;;;;;;1.58;0.30;;;15.00;99.90;;;;;;4150184;28;20176;-93
2023/10/29 00:13:49;;;;;;;1.27;0.20;;;15.00;99.90;;;;;;4149931;28;20223;-92
2023/10/29 00:15:49;;;;;;;0.20;0.10;;;14.90;99.90;;;;;;4166384;28;20215;-91
2023/10/29 00:17:50;;;;;;;0.20;0.20;;;14.70;99.90;;;;;;4166393;28;20620;-92
2023/10/29 00:19:51;;;;;;;1.45;0.00;;;14.70;99.90;;;;;;4149812;28;20239;-92
2023/10/29 00:21:52;;;;;;;3.22;0.17;;;14.70;99.90;;;;;;4149810;28;20184;-92
2023/10/29 00:23:52;;;;;;;0.77;0.43;;;14.70;99.90;;;;;;4149581;28;20177;-92
2023/10/29 00:25:53;;;;;;;1.17;0.10;;;14.70;99.90;;;;;;4149855;28;20169;-93
2023/10/29 00:27:54;;;;;;;0.25;0.00;;;14.70;99.90;;;;;;4149898;28;20652;-91
2023/10/29 00:29:54;;;;;;;3.85;0.15;;;14.60;99.90;;;;;;4165742;28;20196;-93
2023/10/29 00:31:55;;;;;;;0.52;0.20;;;14.60;99.90;;;;;;4149674;28;20254;-92
2023/10/29 00:33:56;;;;;;;1.38;0.22;;;14.60;99.90;;;;;;4165892;28;20224;-94
2023/10/29 00:35:57;;;;;;;2.10;0.22;;;14.70;99.90;;;;;;4149603;28;20177;-93
2023/10/29 00:37:57;;;;;;;0.20;0.10;;;14.70;99.90;;;;;;4149294;28;20295;-92
2023/10/29 00:39:58;;;;;;;0.38;0.30;;;14.60;99.90;;;;;;4149270;28;20168;-91
2023/10/29 00:41:59;;;;;;;0.32;0.10;;;14.60;99.90;;;;;;4149068;28;20192;-91
2023/10/29 00:44:01;;;;;;;0.60;0.20;;;14.60;99.90;;;;;;4165173;28;20207;-92
2023/10/29 00:46:01;;;;;;;0.10;0.10;;;14.60;99.90;;;;;;4149022;28;20215;-92
2023/10/29 00:48:02;;;;;;;1.92;1.13;;;14.70;99.90;;;;;;4165193;28;20172;-91
2023/10/29 00:50:04;;;;;;;0.30;0.30;;;14.70;99.90;;;;;;4165487;28;20267;-91
2023/10/29 00:52:05;;;;;;;2.75;0.28;;;14.70;99.90;;;;;;4165337;28;20164;-91
2023/10/29 00:54:07;;;;;;;0.25;0.20;;;14.60;99.90;;;;;;4165197;28;20572;-94
2023/10/29 00:56:08;;;;;;;0.73;0.20;;;14.70;99.90;;;;;;4165552;28;20172;-93
2023/10/29 00:58:10;;;;;;;3.90;0.20;;;14.70;99.90;;;;;;4165141;28;20182;-92
2023/10/29 01:00:17;;;;;;;0.10;0.10;;;14.60;99.90;;;;;;4165235;28;20164;-94
2023/10/29 01:02:19;;;;;;;0.20;0.20;;;14.60;99.90;;;;;;4148765;28;20188;-93
2023/10/29 01:04:20;;;;;;;0.28;0.22;;;14.50;99.90;;;;;;4148864;28;20279;-90
2023/10/29 01:06:21;;;;;;;1.10;0.30;;;14.50;99.90;;;;;;4148867;28;20184;-94
2023/10/29 01:08:24;;;;;;;0.40;0.20;;;14.50;99.90;;;;;;4148662;28;20196;-93
2023/10/29 01:10:25;;;;;;;0.68;0.20;;;14.40;99.90;;;;;;4148903;28;20214;-94
2023/10/29 01:12:29;;;;;;;0.40;0.20;;;14.40;99.90;;;;;;4148740;28;20180;-94
2023/10/29 01:14:30;;;;;;;0.47;0.20;;;14.30;99.90;;;;;;4148756;28;20212;-92
2023/10/29 01:16:31;;;;;;;0.40;0.40;;;14.20;99.90;;;;;;4148715;28;20255;-91
2023/10/29 01:18:32;;;;;;;0.17;0.15;;;14.20;99.90;;;;;;4148443;28;20201;-92
2023/10/29 01:20:33;;;;;;;0.77;0.32;;;14.20;99.90;;;;;;4165613;28;20165;-92
2023/10/29 01:22:34;;;;;;;1.58;0.55;;;14.10;99.90;;;;;;4175254;28;20180;-93
2023/10/29 01:24:36;;;;;;;0.65;0.30;;;14.20;99.90;;;;;;4164593;28;20168;-92
2023/10/29 01:26:36;;;;;;;0.40;0.22;;;14.10;99.90;;;;;;4168313;28;20228;-94
2023/10/29 01:28:37;;;;;;;1.35;0.15;;;14.20;99.90;;;;;;4148721;28;20189;-94
2023/10/29 01:30:38;;;;;;;0.00;0.00;;;14.10;99.90;;;;;;4165062;28;20670;-94
2023/10/29 01:32:39;;;;;;;0.30;0.10;;;14.10;99.90;;;;;;4164819;28;20676;-93
2023/10/29 01:34:39;;;;;;;0.03;0.00;;;14.10;99.90;;;;;;4148766;28;20223;-93
2023/10/29 01:36:40;;;;;;;0.20;0.10;;;14.00;99.90;;;;;;4149293;28;20247;-91
2023/10/29 01:38:41;;;;;;;0.40;0.20;;;13.90;99.90;;;;;;4149192;28;20288;-91
2023/10/29 01:40:42;;;;;;;0.20;0.00;;;14.00;99.90;;;;;;4149133;28;20161;-93
2023/10/29 01:42:45;;;;;;;0.75;0.28;;;14.10;99.90;;;;;;4149458;28;20188;-92
2023/10/29 01:44:46;;;;;;;0.10;0.10;;;14.20;99.90;;;;;;4148831;28;20218;-94
2023/10/29 01:46:46;;;;;;;0.95;0.28;;;14.30;99.90;;;;;;4149058;28;20224;-92
2023/10/29 01:48:47;;;;;;;0.85;0.20;;;14.30;99.90;;;;;;4148501;28;20621;-94
2023/10/29 01:50:50;;;;;;;1.10;0.40;;;14.30;99.90;;;;;;4165026;28;20215;-91
2023/10/29 01:52:53;;;;;;;0.38;0.20;;;14.40;99.90;;;;;;4148651;28;20568;-91
2023/10/29 01:54:54;;;;;;;0.40;0.20;;;14.40;99.90;;;;;;4148790;28;20270;-91
2023/10/29 01:56:55;;;;;;;0.75;0.43;;;14.50;99.90;;;;;;4165105;28;20160;-92
2023/10/29 01:58:56;;;;;;;0.68;0.40;;;14.50;99.90;;;;;;4165383;28;20200;-95
2023/10/29 02:00:57;;;;;;;1.60;0.40;;;14.40;99.90;;;;;;4165600;28;20157;-92
2023/10/29 02:02:59;;;;;;;0.68;0.20;;;14.40;99.90;;;;;;4165997;28;20203;-93
2023/10/29 02:05:03;;;;;;;0.17;0.08;;;14.40;99.90;;;;;;4166585;28;20701;-93
2023/10/29 02:07:04;;;;;;;0.45;0.20;;;14.50;99.90;;;;;;4164701;28;20172;-90
2023/10/29 02:09:09;;;;;;;0.75;0.22;;;14.50;99.90;;;;;;4147940;28;20197;-93
2023/10/29 02:11:10;;;;;;;0.15;0.00;;;14.50;99.90;;;;;;4164301;28;20184;-92
2023/10/29 02:13:11;;;;;;;0.00;0.00;;;14.50;99.90;;;;;;4164572;28;20259;-91
2023/10/29 02:15:13;;;;;;;0.55;0.20;;;14.50;99.90;;;;;;4148530;28;20250;-93
2023/10/29 02:17:14;;;;;;;0.30;0.10;;;14.50;99.90;;;;;;4148110;28;20165;-93
2023/10/29 02:19:15;;;;;;;0.22;0.00;;;14.60;99.90;;;;;;4164492;28;20192;-94
2023/10/29 02:21:15;;;;;;;0.30;0.10;;;14.60;99.90;;;;;;4166605;28;20180;-93
2023/10/29 02:23:16;;;;;;;0.93;0.30;;;14.60;99.90;;;;;;4167726;28;20183;-92
2023/10/29 02:25:17;;;;;;;0.20;0.10;;;14.60;99.90;;;;;;4151463;28;20664;-91
2023/10/29 02:27:17;;;;;;;0.03;0.00;;;14.70;99.90;;;;;;4167756;28;20180;-94
2023/10/29 02:29:18;;;;;;;0.95;0.13;;;14.70;99.90;;;;;;4151068;28;20189;-93
2023/10/29 02:31:20;;;;;;;0.20;0.10;;;14.70;99.90;;;;;;4151389;28;20181;-91
2023/10/29 02:33:20;;;;;;;0.15;0.10;;;14.60;99.90;;;;;;4151166;28;20219;-90
2023/10/29 02:35:21;;;;;;;0.13;0.03;;;14.60;99.90;;;;;;4151239;28;20181;-91
2023/10/29 02:37:22;;;;;;;0.00;0.00;;;14.60;99.90;;;;;;4151288;28;20201;-92
2023/10/29 02:39:23;;;;;;;0.82;0.20;;;14.60;99.90;;;;;;4150988;28;20208;-91
2023/10/29 02:41:25;;;;;;;0.10;0.00;;;14.60;99.90;;;;;;4150912;28;20236;-92
2023/10/29 02:43:26;;;;;;;0.30;0.05;;;14.70;99.90;;;;;;4167596;28;20176;-94
2023/10/29 02:45:27;;;;;;;1.02;0.20;;;14.70;99.90;;;;;;4150794;28;20205;-94
2023/10/29 02:47:28;;;;;;;0.00;0.00;;;14.60;99.90;;;;;;4167374;28;20183;-93
2023/10/29 02:49:28;;;;;;;1.08;0.25;;;14.50;99.90;;;;;;4150959;28;20652;-91
2023/10/29 02:51:29;;;;;;;1.85;0.20;;;14.50;99.90;;;;;;4167376;28;20172;-92
2023/10/29 02:53:31;;;;;;;0.00;0.00;;;14.50;99.90;;;;;;4150904;28;20200;-91
2023/10/29 02:55:32;;;;;;;0.90;0.10;;;14.50;99.90;;;;;;4167246;28;20180;-93
2023/10/29 02:57:32;;;;;;;0.77;0.22;;;14.50;99.90;;;;;;4150948;28;20239;-94
2023/10/29 02:59:33;;;;;;;0.43;0.13;;;14.50;99.90;;;;;;4151085;28;20730;-94
2023/10/29 03:01:35;;;;;;;0.00;0.00;;;14.40;99.90;;;;;;4150747;28;20540;-93
2023/10/29 03:03:37;;;;;;;0.43;0.15;;;14.40;99.90;;;;;;4151068;28;20181;-93
2023/10/29 03:05:37;;;;;;;0.20;0.10;;;14.40;99.90;;;;;;4151090;28;20175;-93
2023/10/29 03:07:38;;;;;;;0.25;0.20;;;14.40;99.90;;;;;;4150880;28;20193;-93
2023/10/29 03:09:39;;;;;;;0.20;0.10;;;14.40;99.90;;;;;;4150802;28;20272;-93
2023/10/29 03:11:40;;;;;;;0.00;0.00;;;14.40;99.90;;;;;;4167108;28;20176;-92
2023/10/29 03:13:41;;;;;;;1.83;0.30;;;14.30;99.90;;;;;;4150479;28;20255;-91
2023/10/29 03:15:42;;;;;;;0.88;0.43;;;14.30;99.90;;;;;;4167036;28;20172;-93
2023/10/29 03:17:43;;;;;;;0.38;0.20;;;14.30;99.90;;;;;;4150510;28;20637;-89
2023/10/29 03:19:44;;;;;;;0.90;0.10;;;14.40;99.90;;;;;;4150665;28;20217;-93
2023/10/29 03:21:45;;;;;;;1.42;0.57;;;14.40;99.90;;;;;;4166697;28;20242;-91
2023/10/29 03:23:45;;;;;;;0.85;0.30;;;14.50;99.90;;;;;;4166573;28;20234;-92
2023/10/29 03:25:47;;;;;;;2.15;0.47;;;14.50;99.90;;;;;;4183298;28;20163;-92
2023/10/29 03:27:48;;;;;;;0.10;0.10;;;14.50;99.90;;;;;;4150494;28;20219;-91
2023/10/29 03:29:49;;;;;;;1.45;0.20;;;14.50;99.90;;;;;;4150473;28;20737;-90
2023/10/29 03:31:50;;;;;;;0.98;0.10;;;14.50;99.90;;;;;;4166285;28;20180;-92
2023/10/29 03:33:51;;;;;;;0.00;0.00;;;14.40;99.90;;;;;;4150402;28;20212;-94
2023/10/29 03:35:52;;;;;;;0.77;0.20;;;14.40;99.90;;;;;;4150287;28;20315;-93
2023/10/29 03:37:53;;;;;;;4.30;0.32;;;14.40;99.90;;;;;;4150093;28;20169;-92
2023/10/29 03:39:54;;;;;;;0.38;0.10;;;14.30;99.90;;;;;;4150453;28;20196;-94
2023/10/29 03:41:54;;;;;;;0.20;0.20;;;14.20;99.90;;;;;;4150194;28;20203;-91
2023/10/29 03:43:56;;;;;;;1.75;0.35;;;14.10;99.90;;;;;;4150303;28;20222;-94
2023/10/29 03:45:57;;;;;;;0.40;0.28;;;14.10;99.90;;;;;;4150234;28;20168;-91
2023/10/29 03:47:57;;;;;;;2.38;0.05;;;14.00;99.90;;;;;;4150194;28;20180;-91
2023/10/29 03:49:58;;;;;;;2.47;0.32;;;14.00;99.90;;;;;;4149946;28;20240;-93
2023/10/29 03:51:59;;;;;;;3.25;0.17;;;13.90;99.90;;;;;;4166384;28;20172;-94
2023/10/29 03:54:00;;;;;;;0.10;0.10;;;13.90;99.90;;;;;;4149645;28;20268;-93
2023/10/29 03:56:01;;;;;;;2.83;0.20;;;13.90;99.90;;;;;;4166222;28;20263;-91
2023/10/29 03:58:07;;;;;;;2.90;0.70;;;13.90;99.90;;;;;;4149835;28;20267;-91
2023/10/29 04:00:09;;;;;;;2.33;0.20;;;13.90;99.90;;;;;;4149823;28;20172;-94
2023/10/29 04:02:16;;;;;;;1.92;0.50;;;13.90;99.90;;;;;;4166870;28;20167;-92
2023/10/29 04:04:17;;;;;;;0.13;0.03;;;14.10;99.90;;;;;;4149938;28;20183;-92
2023/10/29 04:06:18;;;;;;;1.40;0.10;;;14.10;99.90;;;;;;4149801;28;20172;-93
2023/10/29 04:08:18;;;;;;;0.95;0.20;;;14.10;99.90;;;;;;4166373;28;20250;-93
2023/10/29 04:10:19;;;;;;;0.25;0.10;;;14.00;99.90;;;;;;4166385;28;20176;-94
2023/10/29 04:12:20;;;;;;;0.20;0.10;;;14.00;99.90;;;;;;4167088;28;20258;-93
2023/10/29 04:14:21;;;;;;;5.00;0.52;;;14.00;99.90;;;;;;4149725;28;20282;-93
2023/10/29 04:16:22;;;;;;;0.47;0.10;;;14.10;99.90;;;;;;4152158;28;20676;-93
2023/10/29 04:18:27;;;;;;;1.88;0.57;;;14.20;99.90;;;;;;4166343;28;20286;-93
2023/10/29 04:20:28;;;;;;;2.92;0.45;;;14.10;99.90;;;;;;4150672;28;20201;-94
2023/10/29 04:22:29;;;;;;;4.30;0.50;;;14.10;99.90;;;;;;4150107;28;20225;-92
2023/10/29 04:24:29;;;;;;;2.20;0.28;;;13.90;99.90;;;;;;4166225;28;20176;-90
2023/10/29 04:26:31;;;;;;;0.28;0.10;;;13.90;99.90;;;;;;4149825;28;20227;-94
2023/10/29 04:28:31;;;;;;;0.00;0.00;;;13.90;99.90;;;;;;4149994;28;20201;-95
2023/10/29 04:30:32;;;;;;;0.95;0.20;;;13.90;99.90;;;;;;4166030;28;20202;-94
2023/10/29 04:32:33;;;;;;;1.98;0.30;;;13.80;99.90;;;;;;4149310;28;20177;-93
2023/10/29 04:34:34;;;;;;;0.10;0.10;;;13.90;99.90;;;;;;4149194;28;20216;-93
2023/10/29 04:36:35;;;;;;;1.65;0.50;;;13.90;99.90;;;;;;4182021;28;20229;-94
2023/10/29 04:38:36;;;;;;;3.60;0.30;;;13.80;99.90;;;;;;4149427;28;20195;-94
2023/10/29 04:40:37;;;;;;;1.05;0.40;;;13.80;99.90;;;;;;4149468;28;20176;-94
2023/10/29 04:42:38;;;;;;;1.98;0.50;;;13.80;99.90;;;;;;4165332;28;20188;-93
2023/10/29 04:44:39;;;;;;;1.40;0.20;;;13.80;99.90;;;;;;4148889;28;20173;-95
2023/10/29 04:46:39;;;;;;;0.40;0.08;;;13.80;99.90;;;;;;4165042;28;20255;-93
2023/10/29 04:48:40;;;;;;;1.23;0.03;;;13.80;99.90;;;;;;4149188;28;20201;-92
2023/10/29 04:50:41;;;;;;;3.50;0.70;;;13.80;99.90;;;;;;4165521;28;20174;-94
2023/10/29 04:52:42;;;;;;;0.98;0.40;;;13.70;99.90;;;;;;4149148;28;20264;-94
2023/10/29 04:54:43;;;;;;;0.70;0.22;;;13.60;99.90;;;;;;4148997;28;20255;-93
2023/10/29 04:56:44;;;;;;;1.58;0.30;;;13.60;99.90;;;;;;4165227;28;20644;-95
2023/10/29 04:58:45;;;;;;;19.38;1.73;;;13.50;99.90;;;;;;4148827;28;20223;-93
2023/10/29 05:00:46;;;;;;;1.67;0.85;;;13.60;99.90;;;;;;4148791;28;20168;-94
2023/10/29 05:02:46;;;;;;;3.92;0.40;;;13.60;99.90;;;;;;4148848;28;20604;-93
2023/10/29 05:04:47;;;;;;;8.10;0.25;;;13.60;99.90;;;;;;4165096;28;20263;-94
2023/10/29 05:06:48;;;;;;;3.72;0.10;;;13.50;99.90;;;;;;4148623;28;20160;-94
2023/10/29 05:08:49;;;;;;;1.80;0.38;;;13.50;99.90;;;;;;4148539;28;20203;-92
2023/10/29 05:10:50;;;;;;;1.38;0.30;;;13.50;99.90;;;;;;4148984;28;20169;-92
2023/10/29 05:12:51;;;;;;;5.90;1.05;;;13.60;99.90;;;;;;4148969;28;20188;-94
2023/10/29 05:14:52;;;;;;;0.10;0.00;;;13.60;99.90;;;;;;4148615;28;20657;-93
2023/10/29 05:16:53;;;;;;;7.15;3.47;;;13.50;99.90;;;;;;4148619;28;20176;-94
2023/10/29 05:18:54;;;;;;;1.67;0.30;;;13.60;99.90;;;;;;4149074;28;20193;-94
2023/10/29 05:20:54;;;;;;;3.10;0.25;;;13.60;99.90;;;;;;4148607;28;20204;-93
2023/10/29 05:22:55;;;;;;;2.70;0.40;;;13.60;99.90;;;;;;4148698;28;20272;-94
2023/10/29 05:24:56;;;;;;;6.18;1.00;;;13.50;99.90;;;;;;4164974;28;20176;-93
2023/10/29 05:26:57;;;;;;;2.00;0.55;;;13.50;99.90;;;;;;4148986;28;20176;-92
2023/10/29 05:28:58;;;;;;;2.38;0.50;;;13.50;99.90;;;;;;4164354;28;20199;-92
2023/10/29 05:30:59;;;;;;;3.55;0.50;;;13.50;99.90;;;;;;4164890;28;20176;-92
2023/10/29 05:33:00;;;;;;;4.13;0.50;;;13.40;99.90;;;;;;4164833;28;20172;-93
2023/10/29 05:35:01;;;;;;;11.68;0.77;;;13.50;99.90;;;;;;4148269;28;20208;-94
2023/10/29 05:37:02;;;;;;;0.77;0.15;;;13.40;99.90;;;;;;4148409;28;20188;-94
2023/10/29 05:39:06;;;;;;;4.57;1.52;;;13.40;99.90;;;;;;4148841;28;20197;-94
2023/10/29 05:41:07;;;;;;;1.42;0.25;;;13.40;99.90;;;;;;4148388;28;20176;-92
2023/10/29 05:43:08;;;;;;;2.38;0.25;;;13.30;99.90;;;;;;4148487;28;20316;-92
2023/10/29 05:45:09;;;;;;;2.60;0.45;;;13.30;99.90;;;;;;4148620;28;20181;-92
2023/10/29 05:47:10;;;;;;;1.33;0.28;;;13.20;99.90;;;;;;4148384;28;20181;-94
2023/10/29 05:49:10;;;;;;;3.38;0.75;;;13.20;99.90;;;;;;4148202;28;20188;-92
2023/10/29 05:51:18;;;;;;;3.40;0.55;;;13.10;99.90;;;;;;4148400;28;20179;-91
2023/10/29 05:53:18;;;;;;;1.63;0.32;;;13.10;99.90;;;;;;4148360;28;20257;-91
2023/10/29 05:55:22;;;;;;;5.25;0.95;;;13.10;99.90;;;;;;4148910;28;20184;-91
2023/10/29 05:57:22;;;;;;;1.63;0.28;;;13.00;99.90;;;;;;4151585;28;20172;-91
2023/10/29 05:59:23;;;;;;;2.33;0.43;;;13.00;99.90;;;;;;4151561;28;20201;-94
2023/10/29 06:01:24;;;;;;;2.08;0.35;;;13.10;99.90;;;;;;4151608;28;20188;-92
2023/10/29 06:03:25;;;;;;;4.78;0.60;;;13.10;99.90;;;;;;4151343;28;20175;-92
2023/10/29 06:05:25;;;;;;;7.68;1.45;;;13.10;99.90;;;;;;4151619;28;20267;-92
2023/10/29 06:07:26;;;;;;;3.67;0.30;;;13.10;99.90;;;;;;4153609;28;20234;-95
2023/10/29 06:09:27;;;;;;;4.78;0.40;;;13.10;99.90;;;;;;4154673;28;20205;-92
2023/10/29 06:11:28;;;;;;;0.32;0.10;;;13.10;99.90;;;;;;4153894;28;20213;-94
2023/10/29 06:13:29;;;;;;;5.80;1.30;;;13.10;99.90;;;;;;4136873;28;20217;-96
2023/10/29 06:15:33;;;;;;;3.70;0.77;;;13.00;99.90;;;;;;4155668;28;20168;-94
2023/10/29 06:17:33;;;;;;;9.27;0.65;;;12.90;99.90;;;;;;4169512;28;20620;-94
2023/10/29 06:19:38;;;;;;;6.45;0.98;;;12.90;99.90;;;;;;4153591;28;20267;-95
2023/10/29 06:21:39;;;;;;;6.57;1.25;;;13.00;99.90;;;;;;4153101;28;20579;-96
2023/10/29 06:23:40;;;;;;;14.60;0.52;;;13.00;99.90;;;;;;4152468;28;20260;-95
2023/10/29 06:25:41;;;;;;;0.47;0.17;;;12.90;99.90;;;;;;4154014;28;20187;-96
2023/10/29 06:27:42;;;;;;;5.88;0.57;;;12.90;99.90;;;;;;4155211;28;20267;-96
2023/10/29 06:29:43;;;;;;;1.92;0.20;;;12.80;99.90;;;;;;4154304;28;20196;-93
2023/10/29 06:31:44;;;;;;;6.50;0.40;;;12.90;99.90;;;;;;4154029;28;20176;-94
2023/10/29 06:33:46;;;;;;;3.28;0.22;;;12.90;99.90;;;;;;4154434;28;20343;-94
2023/10/29 06:35:46;;;;;;;1.60;0.45;;;12.90;99.90;;;;;;4154724;28;20200;-95
2023/10/29 06:37:47;;;;;;;3.88;0.98;;;12.90;99.90;;;;;;4153890;28;20683;-94
2023/10/29 06:39:48;;;;;;;3.33;0.50;;;12.90;99.90;;;;;;4168696;28;20623;-96
2023/10/29 06:41:49;;;;;;;4.22;0.93;;;12.80;99.90;;;;;;4153621;28;20235;-93
2023/10/29 06:43:49;;;;;;;3.40;0.70;;;12.80;99.90;;;;;;4152691;28;20169;-94
2023/10/29 06:45:50;;;;;;;5.15;0.60;;;12.70;99.90;;;;;;4154473;28;20176;-93
2023/10/29 06:47:51;;;;;;;6.82;1.10;;;12.80;99.90;;;;;;4153916;28;20180;-95
2023/10/29 06:49:54;;;;;;;2.53;0.52;;;12.70;99.90;;;;;;4152430;28;20200;-91
2023/10/29 06:51:55;;;;;;;7.75;1.20;;;12.80;99.90;;;;;;4170243;28;20169;-93
2023/10/29 06:53:56;;;;;;;5.45;1.35;;;12.90;99.90;;;;;;4155037;28;20251;-93
2023/10/29 06:56:02;;;;;;;5.10;0.40;;;12.80;99.90;;;;;;4155987;28;20188;-95
2023/10/29 06:58:04;;;;;;;4.80;0.32;;;12.70;99.90;;;;;;4170383;28;20184;-93
2023/10/29 07:00:07;;;;;;;4.25;0.82;;;12.70;99.90;;;;;;4170754;28;20264;-92
2023/10/29 07:02:08;;;;;;;2.60;0.43;;;12.70;99.90;;;;;;4171261;28;20230;-92
2023/10/29 07:04:09;;;;;;;1.13;0.35;;;12.70;99.90;;;;;;4152537;28;20728;-94
2023/10/29 07:06:11;;;;;;;1.45;0.93;;;12.70;99.90;;;;;;4153764;28;20187;-96
2023/10/29 07:08:12;;;;;;;3.63;0.80;;;12.60;99.90;;;;;;4154233;28;20641;-94
2023/10/29 07:10:13;;;;;;;1.83;0.30;;;12.60;99.90;;;;;;4153060;28;20264;-92
2023/10/29 07:12:15;;;;;;;2.17;0.45;;;12.60;99.90;;;;;;4155720;28;20698;-96
2023/10/29 07:14:16;;;;;;;2.72;0.45;;;12.70;99.90;;;;;;4170078;28;20216;-95
2023/10/29 07:16:18;;;;;;;1.38;0.43;;;12.70;99.90;;;;;;4153689;28;20180;-94
2023/10/29 07:18:19;;;;;;;0.63;0.30;;;12.80;99.90;;;;;;4153783;28;20208;-94
2023/10/29 07:20:20;;;;;;;1.70;0.25;;;12.90;99.90;;;;;;4170871;28;20172;-95
2023/10/29 07:22:21;;;;;;;3.33;0.63;;;12.90;99.90;;;;;;4157234;28;20183;-95
2023/10/29 07:24:22;;;;;;;2.08;0.88;;;12.90;99.90;;;;;;4169315;28;20218;-94
2023/10/29 07:26:23;;;;;;;4.93;0.57;;;12.90;99.90;;;;;;4157548;28;20735;-92
2023/10/29 07:28:25;;;;;;;2.17;0.38;;;12.90;99.90;;;;;;4153357;28;20212;-95
2023/10/29 07:30:26;;;;;;;3.20;0.82;;;13.00;99.90;;;;;;4154613;28;20584;-91
2023/10/29 07:32:26;;;;;;;2.95;0.47;;;13.10;99.90;;;;;;4169531;28;20173;-93
2023/10/29 07:34:28;;;;;;;3.65;0.20;;;13.20;99.90;;;;;;4153711;28;20213;-92
2023/10/29 07:36:29;;;;;;;4.15;0.35;;;13.20;99.90;;;;;;4173316;28;20176;-92
2023/10/29 07:38:30;;;;;;;4.10;0.57;;;13.20;99.90;;;;;;4173325;28;20299;-92
2023/10/29 07:40:31;;;;;;;2.50;0.85;;;13.20;99.90;;;;;;4171581;28;20169;-95
2023/10/29 07:42:33;;;;;;;3.75;0.40;;;13.30;99.90;;;;;;4155355;28;20191;-92
2023/10/29 07:44:34;;;;;;;4.43;0.40;;;13.40;99.90;;;;;;4154321;28;20196;-94
2023/10/29 07:46:35;;;;;;;4.40;0.80;;;13.40;99.90;;;;;;4170108;28;20180;-94
2023/10/29 07:48:35;;;;;;;3.30;0.85;;;13.40;99.90;;;;;;4155632;28;20180;-95
2023/10/29 07:50:36;;;;;;;2.63;0.30;;;13.50;99.90;;;;;;4155060;28;20259;-94
2023/10/29 07:52:42;;;;;;;1.35;0.35;;;13.70;99.90;;;;;;4152439;28;20268;-95
2023/10/29 07:54:43;;;;;;;4.57;0.40;;;13.70;99.90;;;;;;4170669;28;20219;-93
2023/10/29 07:56:45;;;;;;;4.22;0.60;;;13.80;99.90;;;;;;4156613;28;20157;-94
2023/10/29 07:58:46;;;;;;;2.33;0.82;;;13.80;99.90;;;;;;4153679;28;20197;-92
2023/10/29 08:00:47;;;;;;;1.35;0.20;;;13.70;99.90;;;;;;4155789;28;20173;-94
2023/10/29 08:02:48;;;;;;;2.20;0.20;;;13.70;99.90;;;;;;4154200;28;20184;-96
2023/10/29 08:04:49;;;;;;;3.38;0.82;;;13.60;99.90;;;;;;4190352;28;20266;-94
2023/10/29 08:06:49;;;;;;;4.68;0.57;;;13.80;99.90;;;;;;4154138;28;20180;-92
2023/10/29 08:08:50;;;;;;;3.83;1.23;;;14.00;99.90;;;;;;4156579;28;20181;-96
2023/10/29 08:10:51;;;;;;;0.85;0.30;;;14.20;99.90;;;;;;4171973;28;20168;-94
2023/10/29 08:12:56;;;;;;;1.98;0.30;;;14.10;99.90;;;;;;4172217;28;20236;-93
2023/10/29 08:14:56;;;;;;;4.22;0.73;;;14.10;99.90;;;;;;4170504;28;20723;-94
2023/10/29 08:17:01;;;;;;;1.48;0.08;;;14.20;99.90;;;;;;4171686;28;20165;-95
2023/10/29 08:19:02;;;;;;;6.88;0.73;;;14.10;99.90;;;;;;4154613;28;20201;-96
2023/10/29 08:21:03;;;;;;;5.88;0.63;;;14.30;99.90;;;;;;4154793;28;20171;-95
2023/10/29 08:23:05;;;;;;;2.28;0.57;;;14.40;99.90;;;;;;4156416;28;20692;-95
2023/10/29 08:25:08;;;;;;;1.95;0.57;;;14.50;99.90;;;;;;4168762;28;20168;-94
2023/10/29 08:27:10;;;;;;;6.05;0.95;;;14.50;99.90;;;;;;4168467;28;20184;-94
2023/10/29 08:29:11;;;;;;;3.40;0.43;;;14.30;99.90;;;;;;4169395;28;20266;-93
2023/10/29 08:31:12;;;;;;;6.63;0.85;;;14.20;99.90;;;;;;4168310;28;20179;-94
2023/10/29 08:33:13;;;;;;;4.07;0.40;;;14.10;99.90;;;;;;4153465;28;20173;-92
2023/10/29 08:35:17;;;;;;;0.80;0.40;;;14.20;99.90;;;;;;4169968;28;20184;-94
2023/10/29 08:37:20;;;;;;;2.67;0.40;;;14.00;99.90;;;;;;4154653;28;20166;-94
2023/10/29 08:39:23;;;;;;;0.35;0.20;;;14.00;99.90;;;;;;4169347;28;20193;-92
2023/10/29 08:41:24;;;;;;;0.70;0.43;;;14.00;99.90;;;;;;4168582;28;20633;-91
2023/10/29 08:43:24;;;;;;;4.45;0.77;;;13.80;99.90;;;;;;4152591;28;20188;-92
2023/10/29 08:45:26;;;;;;;6.70;0.50;;;14.00;99.90;;;;;;4172701;28;20172;-93
2023/10/29 08:47:26;;;;;;;1.38;0.63;;;14.10;99.90;;;;;;4166920;28;20169;-91
2023/10/29 08:49:27;;;;;;;5.40;1.42;;;14.40;99.90;;;;;;4151039;28;20196;-93
2023/10/29 08:51:28;;;;;;;9.40;1.33;;;14.60;99.90;;;;;;4152668;28;20276;-92
2023/10/29 08:53:32;;;;;;;7.05;1.27;;;14.90;99.90;;;;;;4153170;28;20181;-93
2023/10/29 08:55:37;;;;;;;6.10;0.70;;;15.20;99.90;;;;;;4156466;28;20192;-93
2023/10/29 08:57:38;;;;;;;8.57;0.55;;;15.10;99.90;;;;;;4153919;28;20176;-92
2023/10/29 08:59:42;;;;;;;11.73;0.90;;;14.90;99.90;;;;;;4153659;28;20296;-94
2023/10/29 09:01:43;;;;;;;4.60;0.73;;;14.90;99.90;;;;;;4154810;28;20187;-94
2023/10/29 09:03:44;;;;;;;1.85;0.30;;;14.80;99.90;;;;;;4152997;28;20180;-93
2023/10/29 09:05:46;;;;;;;7.18;0.52;;;14.80;99.90;;;;;;4151737;28;20172;-94
2023/10/29 09:07:47;;;;;;;0.73;0.25;;;14.70;99.90;;;;;;4172000;28;20236;-92
2023/10/29 09:09:48;;;;;;;0.52;0.38;;;14.70;99.90;;;;;;4169216;28;20257;-93
2023/10/29 09:11:53;;;;;;;0.95;0.30;;;14.50;99.90;;;;;;4169681;28;20188;-94
2023/10/29 09:13:55;;;;;;;0.55;0.20;;;14.40;99.90;;;;;;4158030;28;20214;-92
2023/10/29 09:15:59;;;;;;;10.90;0.98;;;14.50;99.90;;;;;;4174144;28;20188;-93
2023/10/29 09:18:00;;;;;;;2.63;0.30;;;14.60;99.90;;;;;;4172420;28;20203;-94
2023/10/29 09:20:04;;;;;;;3.67;0.30;;;14.70;99.90;;;;;;4187687;28;20191;-92
2023/10/29 09:22:09;;;;;;;1.23;0.35;;;14.60;99.90;;;;;;4176329;28;20211;-92
2023/10/29 09:24:13;;;;;;;6.43;0.75;;;14.60;99.90;;;;;;4171347;28;20179;-93
2023/10/29 09:26:13;;;;;;;3.85;0.45;;;14.50;99.90;;;;;;4170850;28;20167;-91
2023/10/29 09:28:16;;;;;;;7.25;0.80;;;14.50;99.90;;;;;;4155899;28;20176;-93
2023/10/29 09:30:17;;;;;;;5.60;0.40;;;14.50;99.90;;;;;;4157065;28;20251;-96
2023/10/29 09:32:18;;;;;;;3.60;0.75;;;14.60;99.90;;;;;;4158831;28;20192;-92
2023/10/29 09:34:20;;;;;;;3.53;0.40;;;14.50;99.90;;;;;;4158798;28;20204;-95
2023/10/29 09:36:22;;;;;;;4.70;0.85;;;14.50;99.90;;;;;;4155534;28;20211;-94
2023/10/29 09:38:23;;;;;;;4.07;0.40;;;14.40;99.90;;;;;;4174346;28;20188;-93
2023/10/29 09:40:24;;;;;;;1.48;0.70;;;14.40;99.90;;;;;;4156560;28;20200;-95
2023/10/29 09:42:32;;;;;;;5.70;0.73;;;14.40;99.90;;;;;;4171031;28;20192;-91
2023/10/29 09:44:34;;;;;;;7.13;1.08;;;14.60;99.90;;;;;;4168360;28;20676;-96
2023/10/29 09:46:39;;;;;;;2.97;0.75;;;14.60;99.90;;;;;;4171821;28;20200;-92
2023/10/29 09:48:43;;;;;;;2.03;0.80;;;14.50;99.90;;;;;;4172646;28;20202;-92
2023/10/29 09:50:44;;;;;;;2.80;0.50;;;14.60;99.90;;;;;;4173548;28;20617;-92
2023/10/29 09:52:52;;;;;;;4.18;0.90;;;14.70;99.90;;;;;;4172138;28;20184;-93
2023/10/29 09:54:57;;;;;;;6.00;0.65;;;14.90;99.90;;;;;;4174717;28;20721;-92
2023/10/29 09:56:58;;;;;;;5.82;0.50;;;14.90;99.90;;;;;;4169469;28;20207;-96
2023/10/29 09:58:59;;;;;;;4.10;1.08;;;14.70;99.90;;;;;;4151556;28;20196;-92
2023/10/29 10:01:03;;;;;;;2.70;0.68;;;14.70;99.90;;;;;;4168510;28;20267;-94
2023/10/29 10:03:07;;;;;;;6.00;1.60;;;14.70;99.90;;;;;;4169576;28;20168;-93
2023/10/29 10:05:09;;;;;;;3.88;0.40;;;14.80;99.90;;;;;;4168776;28;20730;-92
2023/10/29 10:07:11;;;;;;;5.63;0.93;;;14.70;99.90;;;;;;4169276;28;20172;-95
2023/10/29 10:09:14;;;;;;;3.78;0.80;;;14.70;99.90;;;;;;4151660;28;20222;-94
2023/10/29 10:11:22;;;;;;;1.05;0.30;;;14.60;99.90;;;;;;4186338;28;20159;-95
2023/10/29 10:13:37;;;;;;;8.52;1.02;;;14.50;99.90;;;;;;4153356;28;20186;-91
2023/10/29 10:15:38;;;;;;;4.40;1.00;;;14.40;99.90;;;;;;4170658;28;20215;-92
2023/10/29 10:17:39;;;;;;;4.45;0.95;;;14.40;99.90;;;;;;4167947;28;20172;-94
2023/10/29 10:19:41;;;;;;;4.30;0.77;;;14.30;99.90;;;;;;4173544;28;20203;-95
2023/10/29 10:21:43;;;;;;;5.05;0.52;;;14.30;99.90;;;;;;4153007;28;20227;-96
2023/10/29 10:24:14;;;;;;;4.00;0.68;;;14.20;99.90;;;;;;4168191;28;20658;-91
2023/10/29 10:26:18;;;;;;;2.72;0.52;;;14.30;99.90;;;;;;4168664;28;20293;-91
2023/10/29 10:28:19;;;;;;;0.75;0.40;;;14.30;99.90;;;;;;4169061;28;20188;-93
2023/10/29 10:30:37;;;;;;;1.88;0.52;;;14.30;99.90;;;;;;4168711;28;20173;-91
2023/10/29 10:32:38;;;;;;;1.70;0.57;;;14.30;99.90;;;;;;4171745;28;20180;-92